Time;durP1;ratioP1;P1;durP2;ratioP2;P2;SDS_P1;SDS_P2;PMS_P1;PMS_P2;Temp;Humidity;BMP_temperature;BMP_pressure;BME280_temperature;BME280_humidity;BME280_pressure;Samples;Min_cycle;Max_cycle;Signal;HPM_P1;HPM_P2
2021/03/04 00:04:59;;;;;;;22.33;1.43;;;11.00;99.90;;;;;;20774738;28;20274;-68
2021/03/04 00:15:03;;;;;;;2.20;2.03;;;11.00;99.90;;;;;;20775865;28;20234;-69
2021/03/04 00:25:19;;;;;;;0.50;0.50;;;10.90;99.90;;;;;;20773905;28;20663;-69
2021/03/04 00:35:25;;;;;;;2.00;1.53;;;10.80;99.90;;;;;;20754731;28;20671;-68
2021/03/04 00:45:29;;;;;;;1.30;1.13;;;10.70;99.90;;;;;;20771932;28;20517;-70
2021/03/04 00:55:41;;;;;;;3.23;1.90;;;10.70;99.90;;;;;;20773090;28;20474;-68
2021/03/04 01:05:45;;;;;;;2.93;2.33;;;10.90;99.90;;;;;;20690517;23;20266;-69
2021/03/04 01:15:48;;;;;;;2.93;0.87;;;10.90;99.90;;;;;;20608383;28;20222;-69
2021/03/04 01:26:02;;;;;;;2.27;1.60;;;10.90;99.90;;;;;;20624292;28;20202;-69
2021/03/04 01:36:06;;;;;;;1.57;0.90;;;11.00;99.90;;;;;;20626366;28;20325;-69
2021/03/04 01:46:09;;;;;;;0.47;0.47;;;11.10;99.90;;;;;;20622085;28;20196;-69
2021/03/04 01:56:24;;;;;;;5.23;1.10;;;11.10;99.90;;;;;;20604271;28;20214;-69
2021/03/04 02:06:34;;;;;;;1.53;0.90;;;11.20;99.90;;;;;;20635436;23;20684;-67
2021/03/04 02:16:42;;;;;;;0.87;0.47;;;11.10;99.90;;;;;;20618836;28;20234;-68
2021/03/04 02:27:09;;;;;;;9.87;1.87;;;11.20;99.90;;;;;;20619008;28;20594;-68
2021/03/04 02:37:14;;;;;;;1.60;0.97;;;11.30;99.90;;;;;;20681538;28;20219;-68
2021/03/04 02:47:18;;;;;;;30.77;2.73;;;11.10;99.90;;;;;;20700691;28;20609;-69
2021/03/04 02:57:24;;;;;;;10.80;1.27;;;11.00;99.90;;;;;;20697145;28;20226;-69
2021/03/04 03:07:27;;;;;;;2.60;2.50;;;11.00;99.90;;;;;;20698520;28;20680;-69
2021/03/04 03:17:30;;;;;;;1.80;1.03;;;11.00;99.90;;;;;;20704015;28;20211;-68
2021/03/04 03:27:37;;;;;;;0.60;0.60;;;10.90;99.90;;;;;;20615120;28;20242;-70
2021/03/04 03:37:40;;;;;;;3.20;2.23;;;11.00;99.90;;;;;;20683015;28;20229;-70
2021/03/04 03:47:44;;;;;;;1.37;1.33;;;11.00;99.90;;;;;;20694614;28;20202;-68
2021/03/04 03:57:59;;;;;;;3.20;1.43;;;11.00;99.90;;;;;;20692983;28;20238;-68
2021/03/04 04:08:06;;;;;;;1.80;1.60;;;11.20;99.90;;;;;;20621667;23;20239;-70
2021/03/04 04:18:10;;;;;;;0.80;0.80;;;11.20;99.90;;;;;;20537363;28;20275;-70
2021/03/04 04:28:23;;;;;;;4.90;2.50;;;11.20;99.90;;;;;;20543311;28;20699;-70
2021/03/04 04:38:26;;;;;;;2.17;1.63;;;11.20;99.90;;;;;;20628331;28;20230;-70
2021/03/04 04:48:29;;;;;;;4.33;1.70;;;11.30;99.90;;;;;;20611758;28;20546;-69
2021/03/04 04:58:46;;;;;;;0.63;0.63;;;11.30;99.90;;;;;;20624802;28;20581;-69
2021/03/04 05:08:50;;;;;;;3.63;2.30;;;11.30;99.90;;;;;;20609101;28;20235;-69
2021/03/04 05:18:52;;;;;;;2.10;0.67;;;11.40;99.90;;;;;;20607221;28;20382;-67
2021/03/04 05:29:07;;;;;;;1.47;1.33;;;11.50;99.90;;;;;;20529113;28;20207;-69
2021/03/04 05:39:10;;;;;;;6.03;2.10;;;11.70;99.90;;;;;;20658929;28;20272;-69
2021/03/04 05:49:16;;;;;;;4.20;2.57;;;11.80;99.90;;;;;;20693182;28;20620;-71
2021/03/04 05:59:33;;;;;;;8.60;4.00;;;11.70;99.90;;;;;;20698597;28;20714;-70
2021/03/04 06:09:36;;;;;;;5.93;2.77;;;11.80;99.90;;;;;;20700155;28;20207;-69
2021/03/04 06:19:39;;;;;;;3.43;2.97;;;11.80;99.90;;;;;;20674580;28;20719;-69
2021/03/04 06:29:55;;;;;;;3.43;1.27;;;11.80;99.90;;;;;;20617041;28;20657;-68
2021/03/04 06:39:58;;;;;;;3.60;2.33;;;11.90;99.90;;;;;;20617881;28;20203;-69
2021/03/04 06:50:03;;;;;;;4.40;1.77;;;12.00;99.90;;;;;;20613945;28;20529;-68
2021/03/04 07:00:20;;;;;;;3.57;3.30;;;12.10;99.90;;;;;;20610012;28;20271;-69
2021/03/04 07:10:25;;;;;;;2.17;1.77;;;12.30;99.90;;;;;;20625287;28;20498;-71
2021/03/04 07:20:28;;;;;;;9.27;3.60;;;12.70;99.90;;;;;;20595027;28;20196;-65
2021/03/04 07:30:41;;;;;;;3.23;2.00;;;12.90;99.90;;;;;;20531511;28;20239;-70
2021/03/04 07:40:43;;;;;;;28.90;3.80;;;13.10;99.90;;;;;;20688902;28;20206;-73
2021/03/04 07:50:59;;;;;;;2.27;1.33;;;13.20;99.90;;;;;;20692756;28;20230;-70
2021/03/04 08:01:11;;;;;;;2.30;1.90;;;13.50;99.90;;;;;;20691537;28;20215;-69
2021/03/04 08:11:25;;;;;;;3.50;3.23;;;13.90;99.90;;;;;;20707318;28;20281;-71
2021/03/04 08:21:28;;;;;;;4.57;2.00;;;14.20;99.90;;;;;;20649135;28;20486;-69
2021/03/04 08:31:32;;;;;;;0.97;0.87;;;14.10;99.90;;;;;;20606843;28;20243;-71
2021/03/04 08:41:35;;;;;;;2.97;2.67;;;14.30;99.90;;;;;;20612226;28;20207;-69
2021/03/04 08:51:44;;;;;;;6.27;1.83;;;14.70;99.90;;;;;;20609735;28;20325;-66
2021/03/04 09:01:46;;;;;;;5.33;1.97;;;14.70;99.90;;;;;;20607967;28;20242;-71
2021/03/04 09:11:51;;;;;;;1.60;1.17;;;15.30;99.90;;;;;;20606804;28;20219;-71
2021/03/04 09:21:55;;;;;;;3.53;1.53;;;15.40;99.90;;;;;;20564618;28;20287;-71
2021/03/04 09:32:08;;;;;;;1.73;1.37;;;15.70;99.90;;;;;;20663926;28;20225;-70
2021/03/04 09:42:12;;;;;;;0.83;0.83;;;15.70;99.90;;;;;;20645838;28;20198;-80
2021/03/04 09:52:23;;;;;;;1.30;1.17;;;15.90;99.90;;;;;;20583821;28;20627;-79
2021/03/04 10:02:38;;;;;;;1.97;1.87;;;16.30;99.90;;;;;;20586880;28;20692;-81
2021/03/04 10:12:54;;;;;;;1.23;1.13;;;16.30;99.90;;;;;;20595514;28;20315;-81
2021/03/04 10:22:57;;;;;;;2.57;1.80;;;16.80;99.90;;;;;;20591615;28;20223;-79
2021/03/04 10:33:02;;;;;;;17.67;2.77;;;16.90;99.90;;;;;;20633701;28;20277;-79
2021/03/04 10:43:04;;;;;;;2.43;1.20;;;17.20;99.90;;;;;;20661488;28;20672;-82
2021/03/04 10:53:08;;;;;;;2.30;2.20;;;17.40;99.90;;;;;;20700591;28;20620;-83
2021/03/04 11:03:14;;;;;;;2.10;1.97;;;17.60;99.90;;;;;;20698634;28;20227;-78
2021/03/04 11:13:19;;;;;;;0.60;0.60;;;18.20;99.90;;;;;;20699256;28;20226;-81
2021/03/04 11:23:21;;;;;;;2.53;2.10;;;18.40;99.90;;;;;;20642176;28;20618;-74
2021/03/04 11:33:35;;;;;;;2.97;2.23;;;18.70;99.90;;;;;;20631235;28;20680;-80
2021/03/04 11:43:38;;;;;;;20.30;2.33;;;19.20;99.90;;;;;;20538496;28;20252;-78
2021/03/04 11:53:42;;;;;;;1.67;1.57;;;19.00;99.90;;;;;;20535050;28;20318;-80
2021/03/04 12:03:56;;;;;;;2.23;1.17;;;18.00;99.90;;;;;;20536823;28;20687;-82
2021/03/04 12:13:59;;;;;;;4.83;1.37;;;18.40;99.90;;;;;;20534361;28;20256;-73
2021/03/04 12:24:02;;;;;;;0.93;0.93;;;18.80;99.90;;;;;;20536458;28;20473;-79
2021/03/04 12:34:19;;;;;;;1.23;1.13;;;18.90;99.90;;;;;;20606125;28;20313;-85
2021/03/04 12:44:21;;;;;;;3.30;2.23;;;18.90;99.90;;;;;;20697208;28;20203;-79
2021/03/04 12:54:25;;;;;;;1.67;1.57;;;18.40;99.90;;;;;;20695617;28;20245;-79
2021/03/04 13:04:37;;;;;;;2.10;1.67;;;18.80;99.90;;;;;;20619148;28;20692;-81
2021/03/04 13:14:41;;;;;;;1.07;1.07;;;19.20;99.90;;;;;;20630225;28;20570;-81
2021/03/04 13:24:44;;;;;;;2.93;1.10;;;19.10;99.90;;;;;;20586256;28;20228;-86
2021/03/04 13:35:02;;;;;;;1.90;1.07;;;19.00;99.90;;;;;;20611269;28;20218;-81
2021/03/04 13:45:06;;;;;;;10.73;2.63;;;18.40;99.90;;;;;;20711270;28;20233;-82
2021/03/04 13:55:10;;;;;;;2.77;1.07;;;18.40;99.90;;;;;;20558280;28;20335;-83
2021/03/04 14:05:23;;;;;;;1.37;0.97;;;17.60;99.90;;;;;;20587225;28;20223;-77
2021/03/04 14:15:26;;;;;;;0.70;0.70;;;17.90;99.90;;;;;;20580681;28;20232;-82
2021/03/04 14:25:29;;;;;;;5.83;1.73;;;17.90;99.90;;;;;;20586222;28;20281;-81
2021/03/04 14:35:45;;;;;;;1.87;1.67;;;18.10;99.90;;;;;;20557389;28;20565;-83
2021/03/04 14:45:48;;;;;;;1.33;1.20;;;18.10;99.90;;;;;;20616059;28;20746;-82
2021/03/04 14:55:52;;;;;;;1.50;1.40;;;18.30;99.90;;;;;;20618512;28;20220;-77
2021/03/04 15:06:12;;;;;;;1.50;1.30;;;18.10;99.90;;;;;;20619675;28;20640;-84
2021/03/04 15:16:16;;;;;;;2.57;1.37;;;17.70;99.90;;;;;;20590593;28;20608;-82
2021/03/04 15:26:19;;;;;;;1.23;1.07;;;17.30;99.90;;;;;;20578864;28;20191;-82
2021/03/04 15:36:39;;;;;;;1.47;1.37;;;17.00;99.90;;;;;;20632986;28;20804;-82
2021/03/04 15:46:42;;;;;;;2.67;2.00;;;16.60;99.90;;;;;;20598015;28;20234;-83
2021/03/04 15:56:46;;;;;;;1.30;1.23;;;16.10;99.90;;;;;;20610761;28;20383;-70
2021/03/04 16:07:06;;;;;;;2.07;1.67;;;16.00;99.90;;;;;;20610697;28;20538;-80
2021/03/04 16:17:10;;;;;;;2.77;0.90;;;15.80;99.90;;;;;;20609389;28;20646;-82
2021/03/04 16:27:22;;;;;;;2.13;2.03;;;15.70;99.90;;;;;;20548580;28;20227;-81
2021/03/04 16:37:27;;;;;;;2.00;0.90;;;15.40;99.90;;;;;;20652377;28;20246;-81
2021/03/04 16:47:30;;;;;;;1.50;1.40;;;15.10;99.90;;;;;;20615110;28;20215;-75
2021/03/04 16:57:35;;;;;;;1.63;0.90;;;15.00;99.90;;;;;;20612346;28;20224;-78
2021/03/04 17:07:45;;;;;;;4.37;1.80;;;14.80;99.90;;;;;;20615940;28;20250;-79
2021/03/04 17:17:49;;;;;;;0.80;0.77;;;14.90;99.90;;;;;;20606361;28;20220;-74
2021/03/04 17:27:52;;;;;;;2.20;1.10;;;14.70;99.90;;;;;;20607682;28;20390;-76
2021/03/04 17:38:05;;;;;;;0.63;0.63;;;14.60;99.90;;;;;;20607416;28;20230;-75
2021/03/04 17:48:09;;;;;;;1.57;1.47;;;14.40;99.90;;;;;;20615176;28;20294;-75
2021/03/04 17:58:13;;;;;;;2.13;1.47;;;14.10;99.90;;;;;;20618713;28;20227;-68
2021/03/04 18:08:30;;;;;;;0.80;0.80;;;14.40;99.90;;;;;;20619804;28;20250;-75
2021/03/04 18:18:33;;;;;;;7.30;1.50;;;14.00;99.90;;;;;;20671024;28;20368;-76
2021/03/04 18:28:36;;;;;;;0.40;0.40;;;14.10;99.90;;;;;;20614447;28;20422;-79
2021/03/04 18:38:55;;;;;;;2.10;1.17;;;13.90;99.90;;;;;;20578684;28;20232;-78
2021/03/04 18:48:58;;;;;;;0.77;0.77;;;13.80;99.90;;;;;;20583835;28;20191;-77
2021/03/04 18:59:05;;;;;;;1.93;1.83;;;13.90;99.90;;;;;;20595154;28;20229;-74
2021/03/04 19:09:13;;;;;;;0.83;0.80;;;13.70;99.90;;;;;;20613537;28;20234;-75
2021/03/04 19:19:18;;;;;;;1.23;1.13;;;13.80;99.90;;;;;;20601782;28;20224;-73
2021/03/04 19:29:21;;;;;;;1.17;0.93;;;13.80;99.90;;;;;;20602427;28;20207;-75
2021/03/04 19:39:38;;;;;;;2.27;1.53;;;13.80;99.90;;;;;;20612676;28;20215;-73
2021/03/04 19:49:40;;;;;;;0.53;0.50;;;13.70;99.90;;;;;;20622979;28;20405;-74
2021/03/04 19:59:44;;;;;;;3.50;1.23;;;13.80;99.90;;;;;;20689385;28;20270;-72
2021/03/04 20:09:59;;;;;;;0.97;0.93;;;13.70;99.90;;;;;;20692202;28;20194;-72
2021/03/04 20:20:05;;;;;;;2.07;1.50;;;13.80;99.90;;;;;;20660643;28;20219;-73
2021/03/04 20:30:11;;;;;;;2.80;1.90;;;14.00;99.90;;;;;;20622440;28;20199;-71
2021/03/04 20:40:26;;;;;;;0.87;0.87;;;14.00;99.90;;;;;;20683937;28;20231;-73
2021/03/04 20:50:28;;;;;;;1.60;1.50;;;13.90;99.90;;;;;;20687798;28;20210;-73
2021/03/04 21:00:32;;;;;;;1.73;0.93;;;13.60;99.90;;;;;;20692414;28;20788;-73
2021/03/04 21:10:47;;;;;;;1.90;0.40;;;13.60;99.90;;;;;;20690615;28;20226;-72
2021/03/04 21:20:50;;;;;;;2.83;2.03;;;13.40;99.90;;;;;;20662169;28;20223;-72
2021/03/04 21:30:53;;;;;;;0.53;0.53;;;13.50;99.90;;;;;;20625449;28;20481;-73
2021/03/04 21:41:10;;;;;;;0.77;0.77;;;13.30;99.90;;;;;;20704568;28;20226;-72
2021/03/04 21:51:12;;;;;;;4.37;1.73;;;13.00;99.90;;;;;;20703623;28;20206;-71
2021/03/04 22:01:15;;;;;;;9.57;2.60;;;12.80;99.90;;;;;;20719651;28;20222;-71
2021/03/04 22:11:33;;;;;;;8.97;3.60;;;12.60;99.90;;;;;;20704227;28;22646;-71
2021/03/04 22:21:36;;;;;;;2.43;2.13;;;12.40;99.90;;;;;;20660904;28;20204;-74
2021/03/04 22:31:39;;;;;;;3.07;1.57;;;12.30;99.90;;;;;;20607986;28;20222;-74
2021/03/04 22:41:56;;;;;;;2.20;1.87;;;12.20;99.90;;;;;;20580342;28;20196;-74
2021/03/04 22:51:59;;;;;;;8.60;2.20;;;12.20;99.90;;;;;;20577728;28;20223;-75
2021/03/04 23:02:03;;;;;;;2.17;1.17;;;12.10;99.90;;;;;;20577605;28;20232;-74
2021/03/04 23:12:18;;;;;;;1.57;0.60;;;11.90;99.90;;;;;;20575053;28;20731;-75
2021/03/04 23:22:23;;;;;;;5.93;2.10;;;11.90;99.90;;;;;;20574421;28;20232;-74
2021/03/04 23:32:26;;;;;;;2.57;1.60;;;11.90;99.90;;;;;;20584135;28;20254;-74
2021/03/04 23:42:41;;;;;;;1.40;1.37;;;11.90;99.90;;;;;;20572749;28;20183;-74
2021/03/04 23:52:44;;;;;;;0.60;0.53;;;11.80;99.90;;;;;;20574056;28;20263;-75
